createdAt,value
2022-11-29T00:01:13.486Z,140.17
2022-11-29T00:03:40.750Z,122.28
2022-11-29T00:06:12.906Z,217.45
2022-11-29T00:08:41.269Z,99.35
2022-11-29T00:11:39.501Z,292.48
2022-11-29T00:14:08.219Z,96.30
2022-11-29T00:16:35.635Z,54.75
2022-11-29T00:19:03.004Z,109.53
2022-11-29T00:21:30.065Z,170.98
2022-11-29T00:23:56.916Z,154.15
2022-11-29T00:26:24.292Z,162.47
2022-11-29T00:28:51.319Z,102.07
2022-11-29T00:31:25.302Z,186.93
2022-11-29T00:33:53.543Z,129.15
2022-11-29T00:36:20.837Z,109.32
2022-11-29T00:38:48.172Z,109.80
2022-11-29T00:41:22.767Z,92.75
2022-11-29T00:43:50.290Z,325.80
2022-11-29T00:46:17.564Z,159.98
2022-11-29T00:48:47.645Z,156.23
2022-11-29T00:51:15.033Z,153.73
2022-11-29T00:53:42.099Z,189.00
2022-11-29T00:56:09.262Z,122.18
2022-11-29T00:58:37.729Z,222.40
2022-11-29T01:01:05.650Z,151.00
2022-11-29T01:03:33.478Z,391.23
2022-11-29T01:06:08.367Z,201.82
2022-11-29T01:08:36.734Z,289.27
2022-11-29T01:11:14.230Z,166.95
2022-11-29T01:13:42.165Z,265.52
2022-11-29T01:16:10.188Z,173.03
2022-11-29T01:18:38.092Z,176.38
2022-11-29T01:21:09.496Z,134.50
2022-11-29T01:23:37.887Z,98.78
2022-11-29T01:26:14.730Z,182.75
2022-11-29T01:28:49.490Z,471.07
2022-11-29T01:31:24.442Z,489.50
2022-11-29T01:33:55.994Z,406.85
2022-11-29T01:36:23.962Z,242.18
2022-11-29T01:38:51.438Z,222.13
2022-11-29T01:41:21.939Z,331.90
2022-11-29T01:43:57.738Z,328.38
2022-11-29T01:46:29.461Z,385.30
2022-11-29T01:49:01.754Z,154.85
2022-11-29T01:51:29.374Z,412.73
2022-11-29T01:53:58.185Z,245.40
2022-11-29T01:56:26.122Z,278.73
2022-11-29T01:58:54.442Z,194.95
2022-11-29T02:01:21.535Z,305.48
2022-11-29T02:03:48.892Z,163.98
2022-11-29T02:06:16.428Z,254.20
2022-11-29T02:08:44.387Z,163.52
2022-11-29T02:11:25.562Z,251.05
2022-11-29T02:13:58.114Z,226.45
2022-11-29T02:16:47.659Z,123.72
2022-11-29T02:19:36.350Z,229.27
2022-11-29T02:22:09.975Z,207.23
2022-11-29T02:25:10.832Z,172.57
2022-11-29T02:28:03.150Z,335.38
2022-11-29T02:30:54.311Z,176.60
2022-11-29T02:33:52.213Z,138.10
2022-11-29T02:36:51.735Z,121.32
2022-11-29T02:39:41.154Z,106.70
2022-11-29T02:42:56.505Z,139.45
2022-11-29T02:45:45.277Z,292.73
2022-11-29T02:48:35.664Z,186.50
2022-11-29T02:51:40.409Z,247.57
2022-11-29T02:54:42.910Z,227.60
2022-11-29T02:57:28.234Z,163.43
2022-11-29T02:59:55.200Z,339.13
2022-11-29T03:02:25.278Z,187.90
2022-11-29T03:04:58.755Z,184.18
2022-11-29T03:07:48.569Z,233.75
2022-11-29T03:10:34.270Z,203.55
2022-11-29T03:13:06.223Z,243.18
2022-11-29T03:15:54.796Z,272.40
2022-11-29T03:18:42.719Z,277.73
2022-11-29T03:21:34.834Z,304.00
2022-11-29T03:24:07.677Z,399.60
2022-11-29T03:26:55.799Z,325.30
2022-11-29T03:29:55.180Z,389.33
2022-11-29T03:32:30.588Z,310.92
2022-11-29T03:35:38.784Z,408.48
2022-11-29T03:38:37.613Z,230.90
2022-11-29T03:41:20.056Z,449.30
2022-11-29T03:44:11.629Z,255.90
2022-11-29T03:46:57.026Z,182.18
2022-11-29T03:49:41.079Z,348.65
2022-11-29T03:52:27.609Z,255.65
2022-11-29T03:55:22.022Z,287.38
2022-11-29T03:58:13.455Z,432.50
2022-11-29T04:00:49.784Z,298.92
2022-11-29T04:03:40.929Z,202.40
2022-11-29T04:06:20.367Z,445.60
2022-11-29T04:09:14.034Z,296.48
2022-11-29T04:12:05.660Z,521.77
2022-11-29T04:14:56.547Z,457.27
2022-11-29T04:17:38.344Z,332.40
2022-11-29T04:20:08.220Z,288.50
2022-11-29T04:23:13.362Z,207.43
2022-11-29T04:25:54.553Z,240.30
2022-11-29T04:28:30.628Z,280.98
2022-11-29T04:30:57.690Z,305.67
2022-11-29T04:33:32.286Z,335.52
2022-11-29T04:36:20.349Z,302.00
2022-11-29T04:39:25.091Z,218.13
2022-11-29T04:42:09.983Z,237.48
2022-11-29T04:45:13.105Z,325.73
2022-11-29T04:47:52.171Z,213.98
2022-11-29T04:50:43.605Z,254.52
2022-11-29T04:53:30.502Z,357.83
2022-11-29T04:56:08.120Z,368.13
2022-11-29T04:58:46.323Z,295.27
2022-11-29T05:01:36.764Z,299.40
2022-11-29T05:04:26.166Z,551.17
2022-11-29T05:07:26.758Z,326.77
2022-11-29T05:10:13.957Z,556.38
2022-11-29T05:13:14.906Z,323.95
2022-11-29T05:15:51.145Z,216.18
2022-11-29T05:19:13.794Z,282.38
2022-11-29T05:22:18.089Z,326.37
2022-11-29T05:25:10.489Z,332.02
2022-11-29T05:28:09.833Z,298.92
2022-11-29T05:30:53.733Z,468.70
2022-11-29T05:33:39.153Z,352.52
2022-11-29T05:36:18.691Z,655.17
2022-11-29T05:39:11.984Z,539.75
2022-11-29T05:41:59.448Z,290.65
2022-11-29T05:44:39.121Z,397.90
2022-11-29T05:47:10.490Z,371.60
2022-11-29T05:50:33.392Z,347.73
2022-11-29T05:53:29.392Z,263.23
2022-11-29T05:56:23.612Z,244.25
2022-11-29T05:59:02.661Z,233.32
2022-11-29T06:01:42.046Z,240.98
2022-11-29T06:04:38.333Z,272.13
2022-11-29T06:07:29.654Z,112.32
2022-11-29T06:10:18.068Z,185.05
2022-11-29T06:13:20.958Z,279.35
2022-11-29T06:16:25.988Z,417.45
2022-11-29T06:19:16.519Z,234.73
2022-11-29T06:22:14.336Z,399.20
2022-11-29T06:24:51.210Z,105.22
2022-11-29T06:27:45.820Z,155.50
2022-11-29T06:30:16.693Z,225.75
2022-11-29T06:33:05.436Z,231.73
2022-11-29T06:35:40.475Z,163.23
2022-11-29T06:38:25.279Z,100.07
2022-11-29T06:40:58.687Z,169.73
2022-11-29T06:43:29.960Z,188.95
2022-11-29T06:46:12.811Z,184.97
2022-11-29T06:49:02.493Z,180.88
2022-11-29T06:52:02.068Z,174.60
2022-11-29T06:54:41.251Z,309.70
2022-11-29T06:57:31.336Z,122.75
2022-11-29T07:00:25.755Z,229.93
2022-11-29T07:03:03.099Z,176.88
2022-11-29T07:05:41.155Z,316.40
2022-11-29T07:08:22.347Z,185.00
2022-11-29T07:10:57.343Z,211.13
2022-11-29T07:13:24.786Z,369.00
2022-11-29T07:16:17.115Z,284.88
2022-11-29T07:18:58.174Z,182.60
2022-11-29T07:22:00.417Z,186.00
2022-11-29T07:24:37.790Z,82.50
2022-11-29T07:27:31.324Z,160.63
2022-11-29T07:30:19.953Z,124.97
2022-11-29T07:33:00.595Z,246.68
2022-11-29T07:36:01.329Z,157.35
2022-11-29T07:38:59.454Z,126.40
2022-11-29T07:41:52.273Z,174.37
2022-11-29T07:44:56.327Z,146.80
2022-11-29T07:47:23.315Z,66.43
2022-11-29T07:49:50.153Z,132.93
2022-11-29T07:52:17.807Z,123.78
2022-11-29T07:54:44.875Z,97.53
2022-11-29T07:57:12.003Z,89.78
2022-11-29T07:59:39.038Z,90.25
2022-11-29T08:02:11.516Z,155.32
2022-11-29T08:04:45.427Z,158.90
2022-11-29T08:07:12.762Z,108.17
2022-11-29T08:09:39.779Z,141.23
2022-11-29T08:12:06.904Z,154.85
2022-11-29T08:14:33.911Z,108.88
2022-11-29T08:17:00.857Z,126.35
2022-11-29T08:19:28.440Z,97.73
2022-11-29T08:21:56.197Z,267.73
2022-11-29T08:24:23.297Z,232.27
2022-11-29T08:26:50.415Z,221.10
2022-11-29T08:29:17.532Z,237.98
2022-11-29T08:31:45.467Z,273.40
2022-11-29T08:34:12.749Z,185.32
2022-11-29T08:36:39.783Z,269.13
2022-11-29T08:39:09.599Z,287.38
2022-11-29T08:41:37.631Z,246.10
2022-11-29T08:44:08.727Z,233.30
2022-11-29T08:46:54.512Z,297.05
2022-11-29T08:49:21.675Z,234.57
2022-11-29T08:51:48.534Z,323.75
2022-11-29T08:54:15.616Z,181.50
2022-11-29T08:59:36.405Z,193.25
2022-11-29T09:02:03.501Z,100.25
2022-11-29T09:04:30.397Z,122.93
2022-11-29T09:06:57.528Z,142.52
2022-11-29T09:09:24.446Z,90.77
2022-11-29T09:11:51.770Z,89.20
2022-11-29T09:14:19.523Z,56.35
2022-11-29T09:16:46.536Z,68.05
2022-11-29T09:19:14.316Z,46.45
2022-11-29T09:21:41.548Z,62.10
2022-11-29T09:24:09.405Z,160.70
2022-11-29T09:26:38.135Z,115.70
2022-11-29T09:29:06.725Z,122.80
2022-11-29T09:31:35.162Z,118.50
2022-11-29T09:34:02.928Z,62.43
2022-11-29T09:36:31.073Z,42.67
2022-11-29T09:38:59.420Z,57.53
2022-11-29T09:42:00.400Z,58.03
2022-11-29T09:44:46.427Z,90.63
2022-11-29T09:47:16.392Z,62.07
2022-11-29T09:50:01.198Z,90.93
2022-11-29T09:52:43.315Z,57.75
2022-11-29T09:55:40.355Z,162.38
2022-11-29T09:58:14.195Z,94.22
2022-11-29T10:00:50.619Z,88.30
2022-11-29T10:03:32.379Z,65.70
2022-11-29T10:06:07.264Z,47.22
2022-11-29T10:08:41.401Z,128.18
2022-11-29T10:11:42.098Z,114.13
2022-11-29T10:14:27.037Z,80.73
2022-11-29T10:17:18.697Z,79.57
2022-11-29T10:19:52.946Z,77.35
2022-11-29T10:22:38.303Z,145.70
2022-11-29T10:25:08.052Z,78.55
2022-11-29T10:27:39.821Z,65.00
2022-11-29T10:30:15.077Z,49.90
2022-11-29T10:32:45.352Z,69.57
2022-11-29T10:35:18.001Z,76.68
2022-11-29T10:38:01.416Z,70.53
2022-11-29T10:40:35.121Z,43.37
2022-11-29T10:43:03.025Z,72.95
2022-11-29T10:45:50.096Z,69.03
2022-11-29T10:48:19.885Z,158.70
2022-11-29T10:50:52.078Z,158.75
2022-11-29T10:53:38.526Z,128.80
2022-11-29T10:56:10.152Z,56.08
2022-11-29T10:58:52.827Z,102.22
2022-11-29T11:01:20.024Z,69.85
2022-11-29T11:03:55.623Z,218.13
2022-11-29T11:06:26.820Z,143.13
2022-11-29T11:09:12.333Z,155.30
2022-11-29T11:11:40.206Z,212.10
2022-11-29T11:14:21.809Z,199.68
2022-11-29T11:16:52.564Z,135.05
2022-11-29T11:19:28.293Z,100.10
2022-11-29T11:22:01.166Z,82.72
2022-11-29T11:24:40.615Z,95.53
2022-11-29T11:27:09.111Z,94.57
2022-11-29T11:29:44.183Z,43.92
2022-11-29T11:32:26.635Z,56.30
2022-11-29T11:35:05.582Z,75.85
2022-11-29T11:37:35.880Z,40.17
2022-11-29T11:40:26.644Z,40.97
2022-11-29T11:42:54.839Z,37.28
2022-11-29T11:45:26.031Z,38.47
2022-11-29T11:47:55.562Z,44.80
2022-11-29T11:50:34.125Z,68.40
2022-11-29T11:53:18.382Z,36.35
2022-11-29T11:56:00.719Z,52.50
2022-11-29T11:58:53.213Z,56.00
2022-11-29T12:01:37.988Z,51.38
2022-11-29T12:04:12.513Z,50.50
2022-11-29T12:06:51.443Z,45.95
2022-11-29T12:09:43.670Z,50.28
2022-11-29T12:12:27.527Z,40.63
2022-11-29T12:15:02.252Z,46.17
2022-11-29T12:17:46.468Z,41.95
2022-11-29T12:20:27.090Z,46.05
2022-11-29T12:23:19.650Z,46.85
2022-11-29T12:25:52.222Z,49.13
2022-11-29T12:28:21.197Z,37.20
2022-11-29T12:31:04.724Z,42.15
2022-11-29T12:33:39.722Z,36.00
2022-11-29T12:36:16.316Z,49.17
2022-11-29T12:39:01.985Z,50.57
2022-11-29T12:41:40.934Z,48.05
2022-11-29T12:44:25.078Z,52.05
2022-11-29T12:50:22.804Z,44.45
2022-11-29T12:53:14.743Z,38.40
2022-11-29T12:56:22.651Z,36.90
2022-11-29T12:58:56.008Z,36.72
2022-11-29T13:01:49.074Z,41.10
2022-11-29T13:04:56.517Z,39.20
2022-11-29T13:07:43.050Z,50.57
2022-11-29T13:10:49.994Z,37.63
2022-11-29T13:13:38.013Z,49.72
2022-11-29T13:16:29.273Z,47.95
2022-11-29T13:19:11.119Z,45.10
2022-11-29T13:22:07.449Z,34.93
2022-11-29T13:24:55.384Z,51.28
2022-11-29T13:27:58.564Z,46.13
2022-11-29T13:30:28.727Z,37.15
2022-11-29T13:33:05.828Z,48.65
2022-11-29T13:35:43.905Z,40.10
2022-11-29T13:38:40.022Z,35.03
2022-11-29T13:41:27.410Z,37.97
2022-11-29T13:44:08.538Z,39.95
2022-11-29T13:47:06.915Z,44.33
2022-11-29T13:49:58.813Z,44.63
2022-11-29T13:52:45.731Z,47.75
2022-11-29T13:55:34.320Z,40.17
2022-11-29T13:59:01.141Z,50.28
2022-11-29T14:01:59.379Z,39.38
2022-11-29T14:04:34.104Z,44.03
2022-11-29T14:07:14.396Z,43.58
2022-11-29T14:10:02.511Z,41.47
2022-11-29T14:13:14.300Z,46.63
2022-11-29T14:15:54.427Z,43.20
2022-11-29T14:22:17.226Z,37.40
2022-11-29T14:24:57.188Z,40.90
2022-11-29T14:27:30.099Z,40.30
2022-11-29T14:29:58.678Z,50.08
2022-11-29T14:32:58.402Z,48.53
2022-11-29T14:36:02.800Z,39.17
2022-11-29T14:38:51.975Z,43.47
2022-11-29T14:41:39.959Z,43.42
2022-11-29T14:44:14.920Z,47.25
2022-11-29T14:46:42.345Z,55.93
2022-11-29T14:49:21.403Z,44.03
2022-11-29T14:52:14.376Z,52.47
2022-11-29T14:54:55.961Z,47.08
2022-11-29T14:57:47.480Z,50.08
2022-11-29T15:00:42.110Z,50.07
2022-11-29T15:03:24.162Z,52.42
2022-11-29T15:06:11.745Z,47.22
2022-11-29T15:09:16.042Z,45.45
2022-11-29T15:11:55.386Z,59.60
2022-11-29T15:14:50.400Z,54.73
2022-11-29T15:17:36.611Z,55.22
2022-11-29T15:20:28.704Z,59.75
2022-11-29T15:22:59.830Z,57.45
2022-11-29T15:25:31.969Z,73.40
2022-11-29T15:28:02.386Z,66.30
2022-11-29T15:30:39.241Z,55.38
2022-11-29T15:33:23.994Z,66.30
2022-11-29T15:35:53.355Z,62.08
2022-11-29T15:38:22.441Z,79.20
2022-11-29T15:40:54.793Z,66.83
2022-11-29T15:43:31.403Z,70.10
2022-11-29T15:45:59.108Z,71.40
2022-11-29T15:48:31.496Z,79.70
2022-11-29T15:51:04.388Z,75.03
2022-11-29T15:53:40.293Z,82.90
2022-11-29T15:56:21.746Z,68.30
2022-11-29T15:58:50.048Z,87.55
2022-11-29T16:01:23.938Z,136.07
2022-11-29T16:03:54.581Z,127.47
2022-11-29T16:06:36.687Z,157.63
2022-11-29T16:09:06.164Z,157.70
2022-11-29T16:11:33.384Z,172.38
2022-11-29T16:14:26.068Z,87.05
2022-11-29T16:16:56.932Z,145.13
2022-11-29T16:19:42.437Z,136.50
2022-11-29T16:22:17.077Z,358.90
2022-11-29T16:24:52.997Z,438.73
2022-11-29T16:27:23.889Z,226.75
2022-11-29T16:29:55.208Z,365.13
2022-11-29T16:32:32.404Z,412.70
2022-11-29T16:35:22.256Z,427.10
2022-11-29T16:37:49.473Z,230.80
2022-11-29T16:40:26.830Z,633.33
2022-11-29T16:43:20.650Z,695.80
2022-11-29T16:45:47.941Z,541.73
2022-11-29T16:48:26.364Z,658.42
2022-11-29T16:51:14.707Z,556.15
2022-11-29T16:53:49.751Z,668.03
2022-11-29T16:56:20.584Z,582.05
2022-11-29T16:59:26.331Z,670.47
2022-11-29T17:01:53.001Z,578.45
2022-11-29T17:04:23.540Z,549.17
2022-11-29T17:06:53.488Z,411.85
2022-11-29T17:09:25.374Z,526.65
2022-11-29T17:11:55.178Z,531.40
2022-11-29T17:14:22.704Z,403.77
2022-11-29T17:16:50.026Z,427.75
2022-11-29T17:19:17.705Z,699.67
2022-11-29T17:21:44.744Z,384.15
2022-11-29T17:24:14.687Z,330.33
2022-11-29T17:26:43.449Z,317.17
2022-11-29T17:29:11.598Z,282.55
2022-11-29T17:31:47.339Z,383.30
2022-11-29T17:34:14.489Z,249.60
2022-11-29T17:36:41.656Z,283.10
2022-11-29T17:39:09.024Z,261.02
2022-11-29T17:41:36.138Z,324.45
2022-11-29T17:44:03.796Z,417.45
2022-11-29T17:46:34.054Z,383.38
2022-11-29T17:49:04.146Z,301.60
2022-11-29T17:54:18.501Z,321.55
2022-11-29T17:56:45.418Z,331.52
2022-11-29T17:59:13.054Z,254.32
2022-11-29T18:01:40.418Z,218.03
2022-11-29T18:04:08.495Z,227.32
2022-11-29T18:06:42.414Z,282.20
2022-11-29T18:09:11.357Z,229.52
2022-11-29T18:11:48.524Z,221.40
2022-11-29T18:14:23.432Z,116.83
2022-11-29T18:17:00.812Z,294.50
2022-11-29T18:19:28.509Z,126.10
2022-11-29T18:21:55.546Z,236.50
2022-11-29T18:24:28.157Z,293.83
2022-11-29T18:26:58.070Z,385.97
2022-11-29T18:29:25.872Z,308.48
2022-11-29T18:31:53.678Z,263.70
2022-11-29T18:34:22.240Z,194.85
2022-11-29T18:36:52.828Z,226.48
2022-11-29T18:39:20.978Z,204.63
2022-11-29T18:41:50.405Z,166.50
2022-11-29T18:44:30.334Z,179.15
2022-11-29T18:47:00.674Z,147.57
2022-11-29T18:49:28.636Z,136.02
2022-11-29T18:51:56.347Z,205.70
2022-11-29T18:54:24.016Z,186.95
2022-11-29T18:56:54.140Z,257.80
2022-11-29T18:59:24.025Z,196.02
2022-11-29T19:01:51.606Z,85.32
2022-11-29T19:04:24.100Z,223.57
2022-11-29T19:06:54.840Z,155.10
2022-11-29T19:09:25.456Z,245.48
2022-11-29T19:11:53.822Z,105.15
2022-11-29T19:14:21.529Z,141.35
2022-11-29T19:16:51.551Z,96.33
2022-11-29T19:19:27.239Z,139.60
2022-11-29T19:22:02.995Z,181.43
2022-11-29T19:24:30.962Z,63.65
2022-11-29T19:27:00.083Z,176.25
2022-11-29T19:29:28.642Z,199.53
2022-11-29T19:32:09.884Z,178.65
2022-11-29T19:34:37.117Z,182.15
2022-11-29T19:37:11.083Z,196.82
2022-11-29T19:39:40.687Z,153.88
2022-11-29T19:42:08.443Z,184.43
2022-11-29T19:45:08.566Z,79.22
2022-11-29T19:47:30.883Z,128.65
2022-11-29T19:50:02.307Z,66.53
2022-11-29T19:52:30.445Z,53.72
2022-11-29T19:54:58.480Z,40.47
2022-11-29T19:57:25.775Z,48.17
2022-11-29T19:59:54.277Z,43.05
2022-11-29T20:02:21.556Z,42.75
2022-11-29T20:04:50.023Z,38.67
2022-11-29T20:07:17.811Z,32.43
2022-11-29T20:09:46.639Z,61.55
2022-11-29T20:12:18.518Z,44.20
2022-11-29T20:14:46.488Z,34.10
2022-11-29T20:17:14.792Z,34.85
2022-11-29T20:19:42.229Z,20.30
2022-11-29T20:22:10.745Z,33.28
2022-11-29T20:24:45.194Z,21.75
2022-11-29T20:27:14.119Z,32.63
2022-11-29T20:29:41.455Z,28.52
2022-11-29T20:32:13.906Z,24.03
2022-11-29T20:34:41.768Z,18.15
2022-11-29T20:37:39.890Z,22.70
2022-11-29T20:40:15.745Z,18.27
2022-11-29T20:43:05.667Z,19.45
2022-11-29T20:45:33.628Z,17.50
2022-11-29T20:48:21.033Z,21.17
2022-11-29T20:50:56.637Z,24.75
2022-11-29T20:53:39.523Z,19.10
2022-11-29T20:56:07.956Z,21.63
2022-11-29T20:58:35.401Z,26.90
2022-11-29T21:01:03.263Z,26.98
2022-11-29T21:03:31.896Z,24.92
2022-11-29T21:06:02.340Z,33.33
2022-11-29T21:08:29.984Z,23.63
2022-11-29T21:11:06.565Z,25.63
2022-11-29T21:13:41.628Z,23.77
2022-11-29T21:16:12.869Z,20.90
2022-11-29T21:18:41.188Z,25.40
2022-11-29T21:21:12.512Z,22.48
2022-11-29T21:24:28.159Z,24.07
2022-11-29T21:26:55.562Z,29.55
2022-11-29T21:29:24.194Z,28.50
2022-11-29T21:31:54.257Z,28.90
2022-11-29T21:34:23.819Z,29.42
2022-11-29T21:37:01.635Z,32.57
2022-11-29T21:39:34.740Z,30.60
2022-11-29T21:42:05.679Z,34.10
2022-11-29T21:44:35.600Z,28.33
2022-11-29T21:47:03.057Z,33.33
2022-11-29T21:49:35.132Z,29.90
2022-11-29T21:52:02.854Z,31.17
2022-11-29T21:54:31.748Z,25.70
2022-11-29T21:57:00.100Z,30.23
2022-11-29T21:59:29.959Z,28.27
2022-11-29T22:01:57.506Z,28.50
2022-11-29T22:04:25.484Z,25.42
2022-11-29T22:06:52.878Z,25.67
2022-11-29T22:09:20.112Z,29.35
2022-11-29T22:11:50.315Z,26.67
2022-11-29T22:14:20.578Z,29.47
2022-11-29T22:16:55.228Z,30.20
2022-11-29T22:19:31.332Z,27.23
2022-11-29T22:22:01.728Z,31.92
2022-11-29T22:24:31.225Z,28.60
2022-11-29T22:26:59.306Z,32.33
2022-11-29T22:29:29.323Z,33.22
2022-11-29T22:31:57.478Z,27.42
2022-11-29T22:34:30.074Z,28.80
2022-11-29T22:37:01.582Z,27.30
2022-11-29T22:39:28.885Z,31.87
2022-11-29T22:41:55.930Z,26.02
2022-11-29T22:44:26.796Z,24.75
2022-11-29T22:46:54.248Z,28.80
2022-11-29T22:49:23.776Z,25.90
2022-11-29T22:51:51.357Z,31.53
2022-11-29T22:54:23.649Z,23.77
2022-11-29T22:56:57.243Z,26.23
2022-11-29T22:59:25.168Z,26.58
2022-11-29T23:01:52.473Z,23.40
2022-11-29T23:04:19.811Z,25.57
2022-11-29T23:06:47.205Z,38.03
2022-11-29T23:09:21.933Z,30.40
2022-11-29T23:11:54.518Z,28.38
2022-11-29T23:14:22.818Z,26.80
2022-11-29T23:16:50.897Z,27.23
2022-11-29T23:19:18.751Z,29.42
2022-11-29T23:21:47.485Z,34.00
2022-11-29T23:24:18.550Z,28.45
2022-11-29T23:26:47.721Z,22.45
2022-11-29T23:29:27.697Z,23.30
2022-11-29T23:31:59.620Z,23.20
2022-11-29T23:34:29.615Z,23.95
2022-11-29T23:36:56.906Z,25.02
2022-11-29T23:39:27.115Z,22.42
2022-11-29T23:41:54.426Z,20.70
2022-11-29T23:44:21.716Z,24.45
2022-11-29T23:46:49.415Z,24.48
2022-11-29T23:49:16.975Z,27.30
2022-11-29T23:51:46.894Z,22.52
2022-11-29T23:54:15.222Z,22.63
2022-11-29T23:56:42.811Z,28.50
2022-11-29T23:59:11.373Z,24.70
